createdAt,value
2018-11-27T00:01:30.379Z,7.00
2018-11-27T00:03:58.476Z,7.10
2018-11-27T00:06:26.552Z,7.20
2018-11-27T00:08:54.657Z,7.20
2018-11-27T00:11:22.732Z,7.20
2018-11-27T00:13:50.923Z,7.20
2018-11-27T00:16:18.999Z,7.10
2018-11-27T00:18:47.081Z,7.10
2018-11-27T00:21:15.172Z,7.20
2018-11-27T00:23:43.349Z,7.00
2018-11-27T00:26:11.447Z,7.00
2018-11-27T00:28:39.515Z,7.00
2018-11-27T00:31:07.625Z,7.00
2018-11-27T00:33:35.720Z,7.00
2018-11-27T00:36:03.823Z,6.90
2018-11-27T00:38:31.891Z,7.00
2018-11-27T00:40:59.971Z,6.90
2018-11-27T00:43:28.129Z,6.90
2018-11-27T00:45:56.209Z,6.90
2018-11-27T00:48:24.295Z,7.00
2018-11-27T00:50:52.383Z,7.00
2018-11-27T00:53:20.483Z,6.90
2018-11-27T00:55:48.555Z,6.90
2018-11-27T00:58:16.644Z,6.90
2018-11-27T01:00:44.739Z,6.80
2018-11-27T01:03:12.836Z,6.80
2018-11-27T01:05:40.947Z,6.80
2018-11-27T01:08:09.041Z,6.90
2018-11-27T01:10:37.124Z,6.90
2018-11-27T01:13:05.972Z,6.90
2018-11-27T01:15:34.207Z,6.90
2018-11-27T01:18:02.327Z,6.80
2018-11-27T01:20:30.450Z,6.80
2018-11-27T01:22:58.520Z,6.80
2018-11-27T01:25:26.595Z,6.80
2018-11-27T01:27:54.671Z,6.80
2018-11-27T01:30:23.347Z,6.70
2018-11-27T01:32:51.620Z,6.70
2018-11-27T01:35:21.227Z,6.80
2018-11-27T01:37:50.363Z,6.80
2018-11-27T01:40:27.099Z,6.70
2018-11-27T01:42:57.006Z,6.80
2018-11-27T01:45:25.504Z,6.80
2018-11-27T01:47:53.904Z,6.80
2018-11-27T01:50:22.129Z,6.80
2018-11-27T01:52:50.335Z,6.80
2018-11-27T01:55:20.169Z,6.80
2018-11-27T01:57:48.275Z,6.80
2018-11-27T02:00:32.429Z,6.70
2018-11-27T02:03:01.161Z,6.80
2018-11-27T02:05:29.619Z,6.80
2018-11-27T02:07:57.688Z,6.80
2018-11-27T02:10:25.760Z,6.80
2018-11-27T02:12:54.695Z,6.80
2018-11-27T02:15:30.004Z,6.70
2018-11-27T02:17:58.163Z,6.70
2018-11-27T02:20:26.275Z,6.70
2018-11-27T02:22:54.369Z,6.80
2018-11-27T02:25:24.594Z,6.80
2018-11-27T02:27:52.805Z,6.80
2018-11-27T02:30:22.073Z,6.70
2018-11-27T02:32:50.243Z,6.70
2018-11-27T02:35:19.619Z,6.70
2018-11-27T02:37:48.861Z,6.70
2018-11-27T02:40:17.480Z,6.70
2018-11-27T02:42:45.584Z,6.80
2018-11-27T02:45:14.956Z,6.80
2018-11-27T02:47:43.581Z,6.80
2018-11-27T02:50:13.320Z,6.80
2018-11-27T02:52:41.407Z,6.80
2018-11-27T02:55:14.496Z,6.90
2018-11-27T02:57:42.610Z,6.90
2018-11-27T03:00:15.747Z,6.80
2018-11-27T03:02:43.878Z,6.90
2018-11-27T03:05:13.179Z,6.90
2018-11-27T03:07:41.283Z,6.90
2018-11-27T03:10:11.063Z,7.00
2018-11-27T03:12:39.165Z,6.90
2018-11-27T03:15:12.835Z,6.90
2018-11-27T03:17:40.975Z,6.90
2018-11-27T03:20:11.935Z,7.00
2018-11-27T03:22:40.069Z,7.00
2018-11-27T03:25:09.665Z,7.10
2018-11-27T03:27:37.788Z,7.00
2018-11-27T03:30:22.981Z,7.10
2018-11-27T03:32:51.074Z,7.00
2018-11-27T03:35:21.156Z,7.00
2018-11-27T03:37:49.529Z,7.00
2018-11-27T03:40:21.619Z,7.00
2018-11-27T03:42:49.782Z,7.00
2018-11-27T03:45:18.513Z,7.00
2018-11-27T03:47:46.753Z,7.00
2018-11-27T03:50:21.835Z,7.00
2018-11-27T03:52:49.944Z,7.00
2018-11-27T03:55:18.045Z,7.00
2018-11-27T03:57:46.175Z,7.00
2018-11-27T04:00:18.263Z,7.00
2018-11-27T04:02:48.664Z,7.10
2018-11-27T04:05:16.923Z,7.00
2018-11-27T04:07:45.019Z,7.00
2018-11-27T04:10:18.156Z,7.10
2018-11-27T04:12:46.259Z,7.10
2018-11-27T04:15:14.355Z,7.10
2018-11-27T04:17:42.443Z,7.10
2018-11-27T04:20:11.318Z,7.20
2018-11-27T04:22:39.900Z,7.10
2018-11-27T04:25:09.583Z,7.20
2018-11-27T04:27:37.667Z,7.10
2018-11-27T04:30:08.762Z,7.00
2018-11-27T04:32:36.951Z,7.00
2018-11-27T04:35:05.988Z,7.10
2018-11-27T04:37:34.100Z,7.20
2018-11-27T04:40:02.281Z,7.20
2018-11-27T04:42:30.363Z,7.10
2018-11-27T04:44:58.452Z,7.10
2018-11-27T04:47:26.571Z,7.10
2018-11-27T04:49:54.649Z,7.10
2018-11-27T04:52:22.765Z,7.20
2018-11-27T04:54:50.869Z,7.20
2018-11-27T04:57:18.960Z,7.20
2018-11-27T04:59:47.056Z,7.20
2018-11-27T05:02:15.131Z,7.20
2018-11-27T05:04:43.203Z,7.20
2018-11-27T05:07:11.319Z,7.20
2018-11-27T05:09:39.432Z,7.20
2018-11-27T05:12:07.512Z,7.20
2018-11-27T05:14:35.598Z,7.20
2018-11-27T05:17:03.798Z,7.20
2018-11-27T05:19:31.867Z,7.10
2018-11-27T05:22:00.051Z,7.20
2018-11-27T05:24:28.179Z,7.10
2018-11-27T05:26:56.293Z,7.10
2018-11-27T05:29:24.397Z,7.20
2018-11-27T05:31:52.623Z,7.10
2018-11-27T05:34:20.697Z,7.10
2018-11-27T05:36:49.444Z,7.20
2018-11-27T05:39:17.573Z,7.10
2018-11-27T05:41:46.263Z,7.10
2018-11-27T05:44:14.378Z,7.20
2018-11-27T05:46:42.456Z,7.10
2018-11-27T05:49:10.594Z,7.20
2018-11-27T05:51:38.699Z,7.20
2018-11-27T05:54:06.828Z,7.10
2018-11-27T05:56:34.953Z,7.10
2018-11-27T05:59:03.028Z,7.10
2018-11-27T06:01:31.174Z,7.10
2018-11-27T06:03:59.261Z,7.10
2018-11-27T06:06:27.860Z,7.00
2018-11-27T06:08:56.972Z,7.00
2018-11-27T06:11:24.071Z,7.10
2018-11-27T06:13:52.176Z,7.10
2018-11-27T06:16:20.320Z,7.20
2018-11-27T06:18:48.423Z,7.20
2018-11-27T06:21:16.581Z,7.20
2018-11-27T06:23:44.775Z,7.20
2018-11-27T06:26:12.911Z,7.10
2018-11-27T06:28:41.036Z,7.20
2018-11-27T06:31:09.138Z,7.20
2018-11-27T06:33:37.235Z,7.20
2018-11-27T06:36:05.753Z,7.10
2018-11-27T06:38:33.944Z,7.20
2018-11-27T06:41:02.073Z,7.20
2018-11-27T06:43:30.163Z,7.30
2018-11-27T06:45:58.241Z,7.20
2018-11-27T06:48:26.448Z,7.30
2018-11-27T06:50:54.627Z,7.30
2018-11-27T06:53:22.711Z,7.30
2018-11-27T06:55:50.899Z,7.30
2018-11-27T06:58:19.043Z,7.30
2018-11-27T07:00:47.189Z,7.30
2018-11-27T07:03:15.391Z,7.30
2018-11-27T07:05:43.526Z,7.30
2018-11-27T07:08:11.630Z,7.30
2018-11-27T07:10:41.331Z,7.30
2018-11-27T07:13:10.951Z,7.30
2018-11-27T07:15:39.146Z,7.20
2018-11-27T07:18:08.182Z,7.30
2018-11-27T07:20:36.614Z,7.40
2018-11-27T07:23:04.949Z,7.30
2018-11-27T07:25:33.131Z,7.40
2018-11-27T07:28:01.225Z,7.40
2018-11-27T07:30:29.352Z,7.40
2018-11-27T07:32:57.462Z,7.30
2018-11-27T07:35:25.565Z,7.30
2018-11-27T07:37:53.651Z,7.30
2018-11-27T07:40:23.625Z,7.40
2018-11-27T07:42:53.028Z,7.30
2018-11-27T07:45:22.111Z,7.20
2018-11-27T07:47:50.286Z,7.30
2018-11-27T07:50:18.616Z,7.30
2018-11-27T07:52:46.803Z,7.20
2018-11-27T07:55:17.909Z,7.00
2018-11-27T07:57:46.077Z,7.10
2018-11-27T08:00:16.898Z,7.10
2018-11-27T08:02:46.088Z,7.20
2018-11-27T08:05:17.595Z,7.20
2018-11-27T08:07:48.894Z,7.20
2018-11-27T08:10:18.954Z,7.20
2018-11-27T08:12:47.187Z,7.30
2018-11-27T08:15:16.500Z,7.10
2018-11-27T08:17:44.660Z,7.20
2018-11-27T08:20:19.179Z,7.20
2018-11-27T08:22:47.289Z,7.20
2018-11-27T08:25:15.527Z,7.20
2018-11-27T08:27:43.593Z,7.20
2018-11-27T08:30:13.835Z,7.20
2018-11-27T08:32:42.068Z,7.20
2018-11-27T08:35:15.351Z,7.20
2018-11-27T08:37:43.713Z,7.10
2018-11-27T08:40:13.875Z,7.20
2018-11-27T08:42:41.983Z,7.30
2018-11-27T08:45:14.092Z,7.30
2018-11-27T08:47:42.371Z,7.30
2018-11-27T08:50:12.534Z,7.30
2018-11-27T08:52:46.500Z,7.30
2018-11-27T08:55:11.255Z,7.30
2018-11-27T08:57:39.711Z,7.30
2018-11-27T09:00:13.514Z,7.30
2018-11-27T09:02:41.629Z,7.30
2018-11-27T09:05:10.189Z,7.30
2018-11-27T09:07:38.283Z,8.10
2018-11-27T09:10:16.787Z,7.60
2018-11-27T09:12:44.895Z,7.40
2018-11-27T09:15:14.848Z,7.30
2018-11-27T09:17:45.516Z,7.30
2018-11-27T09:20:13.699Z,7.30
2018-11-27T09:22:41.816Z,7.30
2018-11-27T09:25:11.216Z,7.30
2018-11-27T09:27:39.307Z,7.40
2018-11-27T09:30:18.287Z,7.20
2018-11-27T09:32:46.471Z,7.30
2018-11-27T09:35:14.564Z,7.40
2018-11-27T09:37:42.671Z,7.30
2018-11-27T09:40:13.831Z,7.40
2018-11-27T09:42:41.924Z,7.40
2018-11-27T09:45:13.308Z,7.30
2018-11-27T09:47:42.144Z,7.40
2018-11-27T09:50:11.504Z,7.30
2018-11-27T09:52:39.593Z,7.30
2018-11-27T09:55:12.187Z,7.40
2018-11-27T09:57:40.325Z,7.50
2018-11-27T10:00:17.314Z,7.40
2018-11-27T10:02:45.509Z,7.50
2018-11-27T10:05:14.003Z,7.50
2018-11-27T10:07:42.090Z,7.50
2018-11-27T10:10:11.439Z,7.50
2018-11-27T10:12:39.592Z,7.60
2018-11-27T10:15:10.994Z,7.60
2018-11-27T10:17:39.171Z,7.50
2018-11-27T10:20:09.575Z,7.50
2018-11-27T10:22:37.657Z,7.60
2018-11-27T10:25:07.653Z,7.50
2018-11-27T10:27:35.764Z,8.10
2018-11-27T10:30:07.804Z,8.00
2018-11-27T10:32:35.979Z,7.80
2018-11-27T10:35:04.371Z,7.60
2018-11-27T10:37:32.529Z,7.70
2018-11-27T10:40:00.700Z,7.80
2018-11-27T10:42:30.263Z,7.70
2018-11-27T10:44:56.881Z,7.60
2018-11-27T10:47:24.976Z,7.60
2018-11-27T10:49:53.070Z,7.70
2018-11-27T10:52:21.187Z,7.70
2018-11-27T10:54:50.827Z,7.70
2018-11-27T10:57:18.180Z,7.80
2018-11-27T10:59:46.268Z,7.80
2018-11-27T11:02:19.909Z,7.70
2018-11-27T11:04:48.013Z,7.70
2018-11-27T11:07:16.128Z,7.70
2018-11-27T11:09:44.232Z,7.70
2018-11-27T11:12:12.339Z,7.70
2018-11-27T11:14:40.438Z,7.70
2018-11-27T11:17:08.507Z,7.70
2018-11-27T11:19:36.654Z,7.70
2018-11-27T11:22:04.778Z,7.70
2018-11-27T11:24:32.898Z,7.80
2018-11-27T11:27:01.016Z,7.80
2018-11-27T11:29:29.115Z,7.80
2018-11-27T11:31:57.214Z,7.70
2018-11-27T11:34:25.396Z,7.70
2018-11-27T11:36:53.508Z,7.90
2018-11-27T11:39:21.602Z,8.00
2018-11-27T11:41:49.692Z,7.90
2018-11-27T11:44:17.772Z,8.10
2018-11-27T11:46:45.870Z,8.20
2018-11-27T11:49:14.032Z,8.20
2018-11-27T11:51:42.115Z,8.10
2018-11-27T11:54:10.201Z,8.10
2018-11-27T11:56:38.308Z,8.10
2018-11-27T11:59:06.423Z,8.00
2018-11-27T12:01:34.572Z,8.00
2018-11-27T12:04:02.688Z,8.10
2018-11-27T12:06:30.770Z,8.10
2018-11-27T12:08:58.930Z,8.20
2018-11-27T12:11:27.031Z,8.40
2018-11-27T12:13:55.133Z,8.30
2018-11-27T12:16:23.255Z,8.30
2018-11-27T12:18:51.333Z,8.40
2018-11-27T12:21:26.219Z,8.40
2018-11-27T12:23:54.411Z,8.40
2018-11-27T12:26:22.592Z,8.40
2018-11-27T12:28:50.926Z,8.30
2018-11-27T12:31:19.051Z,8.20
2018-11-27T12:33:47.171Z,8.20
2018-11-27T12:36:15.399Z,8.20
2018-11-27T12:38:43.564Z,8.10
2018-11-27T12:41:11.736Z,8.10
2018-11-27T12:43:40.116Z,8.20
2018-11-27T12:46:08.333Z,8.30
2018-11-27T12:48:36.533Z,8.30
2018-11-27T12:51:04.920Z,8.20
2018-11-27T12:53:33.025Z,8.10
2018-11-27T12:56:01.149Z,8.20
2018-11-27T12:58:29.247Z,7.90
2018-11-27T13:00:57.368Z,7.90
2018-11-27T13:03:25.482Z,7.80
2018-11-27T13:05:53.606Z,7.90
2018-11-27T13:08:23.548Z,7.90
2018-11-27T13:10:51.730Z,8.00
2018-11-27T13:13:19.955Z,8.00
2018-11-27T13:15:48.247Z,7.90
2018-11-27T13:18:16.358Z,7.90
2018-11-27T13:20:44.527Z,7.90
2018-11-27T13:23:13.005Z,7.90
2018-11-27T13:25:41.204Z,7.90
2018-11-27T13:28:10.444Z,7.90
2018-11-27T13:30:45.587Z,8.00
2018-11-27T13:34:17.070Z,8.00
2018-11-27T13:36:45.243Z,8.10
2018-11-27T13:39:24.794Z,8.10
2018-11-27T13:41:52.918Z,8.10
2018-11-27T13:44:21.115Z,8.10
2018-11-27T13:46:49.212Z,8.10
2018-11-27T13:49:17.440Z,8.10
2018-11-27T13:51:45.551Z,8.10
2018-11-27T13:54:13.643Z,8.10
2018-11-27T13:56:41.891Z,8.10
2018-11-27T13:59:10.036Z,8.00
2018-11-27T14:01:38.199Z,7.90
2018-11-27T14:04:06.434Z,7.90
2018-11-27T14:06:34.559Z,7.80
2018-11-27T14:09:02.712Z,8.00
2018-11-27T14:11:30.907Z,8.00
2018-11-27T14:13:59.035Z,8.00
2018-11-27T14:16:27.115Z,8.10
2018-11-27T14:18:55.221Z,8.10
2018-11-27T14:21:23.386Z,8.10
2018-11-27T14:23:51.518Z,8.00
2018-11-27T14:26:19.660Z,8.10
2018-11-27T14:28:47.954Z,8.10
2018-11-27T14:31:16.080Z,8.10
2018-11-27T14:33:44.197Z,8.10
2018-11-27T14:36:12.384Z,8.00
2018-11-27T14:38:40.447Z,8.10
2018-11-27T14:41:08.657Z,8.10
2018-11-27T14:43:36.849Z,8.00
2018-11-27T14:46:06.775Z,8.00
2018-11-27T14:48:34.903Z,8.00
2018-11-27T14:51:02.987Z,7.90
2018-11-27T14:53:31.078Z,7.90
2018-11-27T14:55:59.515Z,7.90
2018-11-27T14:58:27.692Z,7.90
2018-11-27T15:00:55.943Z,7.90
2018-11-27T15:03:24.325Z,7.80
2018-11-27T15:05:52.435Z,7.70
2018-11-27T15:08:20.533Z,7.70
2018-11-27T15:10:48.632Z,7.70
2018-11-27T15:13:16.727Z,7.60
2018-11-27T15:15:44.820Z,7.70
2018-11-27T15:18:13.000Z,7.50
2018-11-27T15:20:41.312Z,7.40
2018-11-27T15:23:09.440Z,7.50
2018-11-27T15:25:37.528Z,7.50
2018-11-27T15:28:05.707Z,7.50
2018-11-27T15:30:35.762Z,7.50
2018-11-27T15:33:10.600Z,7.30
2018-11-27T15:35:38.720Z,7.30
2018-11-27T15:38:07.260Z,7.40
2018-11-27T15:40:36.041Z,7.30
2018-11-27T15:43:04.475Z,7.40
2018-11-27T15:45:34.272Z,7.20
2018-11-27T15:48:03.160Z,7.20
2018-11-27T15:50:37.900Z,7.10
2018-11-27T15:53:07.279Z,7.00
2018-11-27T15:55:40.139Z,7.00
2018-11-27T15:58:10.272Z,7.10
2018-11-27T16:00:38.884Z,7.00
2018-11-27T16:03:07.341Z,7.10
2018-11-27T16:05:36.788Z,6.90
2018-11-27T16:08:05.462Z,7.00
2018-11-27T16:10:33.575Z,7.10
2018-11-27T16:13:01.744Z,7.00
2018-11-27T16:15:29.853Z,6.90
2018-11-27T16:17:58.090Z,7.00
2018-11-27T16:20:26.288Z,7.00
2018-11-27T16:22:54.717Z,7.00
2018-11-27T16:25:23.805Z,7.00
2018-11-27T16:27:52.349Z,6.90
2018-11-27T16:30:21.811Z,6.90
2018-11-27T16:32:50.100Z,6.90
2018-11-27T16:35:18.365Z,6.80
2018-11-27T16:37:47.870Z,6.80
2018-11-27T16:40:20.013Z,6.90
2018-11-27T16:42:48.485Z,6.90
2018-11-27T16:45:17.987Z,6.90
2018-11-27T16:47:46.505Z,6.90
2018-11-27T16:50:15.599Z,6.90
2018-11-27T16:52:44.088Z,6.90
2018-11-27T16:55:14.136Z,6.90
2018-11-27T16:57:42.329Z,6.90
2018-11-27T17:00:22.492Z,6.90
2018-11-27T17:02:52.522Z,6.90
2018-11-27T17:05:20.780Z,6.90
2018-11-27T17:07:54.095Z,6.80
2018-11-27T17:10:22.804Z,6.70
2018-11-27T17:12:57.293Z,6.80
2018-11-27T17:15:27.282Z,6.80
2018-11-27T17:17:55.466Z,6.80
2018-11-27T17:20:29.765Z,6.70
2018-11-27T17:23:01.912Z,6.80
2018-11-27T17:25:30.892Z,6.70
2018-11-27T17:28:00.971Z,6.80
2018-11-27T17:30:36.925Z,6.70
2018-11-27T17:33:09.601Z,6.70
2018-11-27T17:35:37.975Z,6.70
2018-11-27T17:38:06.694Z,6.70
2018-11-27T17:40:34.388Z,6.70
2018-11-27T17:43:02.732Z,6.60
2018-11-27T17:45:31.039Z,6.60
2018-11-27T17:47:59.483Z,6.60
2018-11-27T17:50:27.748Z,6.50
2018-11-27T17:52:55.959Z,6.60
2018-11-27T17:55:24.192Z,6.60
2018-11-27T17:57:52.383Z,6.60
2018-11-27T18:00:29.581Z,6.50
2018-11-27T18:03:01.379Z,6.60
2018-11-27T18:05:29.499Z,6.60
2018-11-27T18:07:57.942Z,6.50
2018-11-27T18:10:26.211Z,6.40
2018-11-27T18:12:54.388Z,6.50
2018-11-27T18:15:22.832Z,6.50
2018-11-27T18:17:51.109Z,6.50
2018-11-27T18:20:19.360Z,6.50
2018-11-27T18:22:47.712Z,6.50
2018-11-27T18:25:17.233Z,6.50
2018-11-27T18:27:46.297Z,6.40
2018-11-27T18:30:22.231Z,6.50
2018-11-27T18:32:50.449Z,6.40
2018-11-27T18:35:20.783Z,6.40
2018-11-27T18:37:49.486Z,6.40
2018-11-27T18:40:17.974Z,6.40
2018-11-27T18:42:46.659Z,6.40
2018-11-27T18:45:19.909Z,6.30
2018-11-27T18:47:48.058Z,6.30
2018-11-27T18:50:16.764Z,6.30
2018-11-27T18:52:45.080Z,6.20
2018-11-27T18:55:14.444Z,6.20
2018-11-27T18:57:43.289Z,6.30
2018-11-27T19:00:17.810Z,6.20
2018-11-27T19:02:46.236Z,6.20
2018-11-27T19:05:14.576Z,6.10
2018-11-27T19:07:42.788Z,6.00
2018-11-27T19:10:17.994Z,6.00
2018-11-27T19:12:46.704Z,6.00
2018-11-27T19:15:19.380Z,6.10
2018-11-27T19:17:49.031Z,6.00
2018-11-27T19:20:17.278Z,6.10
2018-11-27T19:22:45.496Z,6.10
2018-11-27T19:25:14.749Z,6.00
2018-11-27T19:27:42.926Z,5.90
2018-11-27T19:30:16.142Z,5.90
2018-11-27T19:32:43.779Z,6.00
2018-11-27T19:35:15.171Z,5.90
2018-11-27T19:37:44.120Z,5.90
2018-11-27T19:40:13.485Z,6.00
2018-11-27T19:42:41.602Z,6.00
2018-11-27T19:45:15.893Z,5.90
2018-11-27T19:47:44.084Z,6.00
2018-11-27T19:50:12.958Z,6.00
2018-11-27T19:52:42.439Z,5.90
2018-11-27T19:55:11.985Z,5.90
2018-11-27T19:57:40.298Z,5.80
2018-11-27T20:00:20.541Z,5.90
2018-11-27T20:02:48.905Z,5.90
2018-11-27T20:05:18.470Z,5.90
2018-11-27T20:07:46.749Z,5.90
2018-11-27T20:10:15.406Z,5.80
2018-11-27T20:12:43.708Z,5.90
2018-11-27T20:15:16.786Z,5.80
2018-11-27T20:17:44.595Z,5.80
2018-11-27T20:20:13.680Z,5.80
2018-11-27T20:22:41.948Z,5.80
2018-11-27T20:25:12.820Z,5.80
2018-11-27T20:27:41.129Z,5.80
2018-11-27T20:30:11.830Z,5.70
2018-11-27T20:32:40.286Z,5.70
2018-11-27T20:35:10.140Z,5.70
2018-11-27T20:37:38.379Z,5.60
2018-11-27T20:40:09.924Z,5.70
2018-11-27T20:42:38.142Z,5.70
2018-11-27T20:45:08.883Z,5.70
2018-11-27T20:47:38.203Z,5.60
2018-11-27T20:50:12.339Z,5.60
2018-11-27T20:52:39.151Z,5.60
2018-11-27T20:55:08.430Z,5.60
2018-11-27T20:57:36.957Z,5.60
2018-11-27T21:00:17.199Z,5.70
2018-11-27T21:02:45.833Z,5.50
2018-11-27T21:05:14.931Z,5.50
2018-11-27T21:07:45.803Z,5.50
2018-11-27T21:10:15.815Z,5.50
2018-11-27T21:12:44.786Z,5.50
2018-11-27T21:15:16.054Z,5.60
2018-11-27T21:17:44.495Z,5.50
2018-11-27T21:20:13.533Z,5.60
2018-11-27T21:22:41.857Z,5.60
2018-11-27T21:25:15.086Z,5.70
2018-11-27T21:27:45.234Z,5.80
2018-11-27T21:30:15.567Z,5.70
2018-11-27T21:32:43.863Z,5.70
2018-11-27T21:35:12.940Z,5.60
2018-11-27T21:37:41.089Z,5.70
2018-11-27T21:40:10.477Z,5.60
2018-11-27T21:42:38.596Z,5.50
2018-11-27T21:45:12.868Z,5.50
2018-11-27T21:47:41.034Z,5.60
2018-11-27T21:50:11.481Z,5.60
2018-11-27T21:52:39.619Z,5.50
2018-11-27T21:55:09.860Z,5.50
2018-11-27T21:57:37.971Z,5.50
2018-11-27T22:00:10.017Z,5.50
2018-11-27T22:02:38.171Z,5.50
2018-11-27T22:05:07.422Z,5.50
2018-11-27T22:07:35.616Z,5.50
2018-11-27T22:10:05.944Z,5.50
2018-11-27T22:12:34.179Z,5.50
2018-11-27T22:15:02.275Z,5.50
2018-11-27T22:17:30.392Z,5.40
2018-11-27T22:19:58.545Z,5.50
2018-11-27T22:22:26.672Z,5.40
2018-11-27T22:24:54.771Z,5.60
2018-11-27T22:27:22.887Z,5.50
2018-11-27T22:29:51.009Z,5.50
2018-11-27T22:32:19.119Z,5.50
2018-11-27T22:34:47.231Z,5.60
2018-11-27T22:37:15.334Z,5.50
2018-11-27T22:39:43.436Z,5.30
2018-11-27T22:42:11.545Z,5.40
2018-11-27T22:44:39.683Z,5.30
2018-11-27T22:47:07.798Z,5.40
2018-11-27T22:49:35.899Z,5.30
2018-11-27T22:52:04.101Z,5.40
2018-11-27T22:54:32.236Z,5.40
2018-11-27T22:57:00.346Z,5.50
2018-11-27T22:59:28.480Z,5.50
2018-11-27T23:01:56.595Z,5.50
2018-11-27T23:04:24.694Z,5.50
2018-11-27T23:06:52.787Z,5.30
2018-11-27T23:09:20.968Z,5.30
2018-11-27T23:11:49.099Z,5.30
2018-11-27T23:14:17.204Z,5.30
2018-11-27T23:16:45.291Z,5.30
2018-11-27T23:19:13.407Z,5.30
2018-11-27T23:21:41.503Z,5.30
2018-11-27T23:24:09.695Z,5.40
2018-11-27T23:26:37.821Z,5.30
2018-11-27T23:29:05.937Z,5.30
2018-11-27T23:31:34.055Z,5.10
2018-11-27T23:34:02.171Z,5.10
2018-11-27T23:36:30.277Z,5.20
2018-11-27T23:38:58.385Z,5.20
2018-11-27T23:41:26.504Z,5.10
2018-11-27T23:43:54.637Z,5.20
2018-11-27T23:46:22.747Z,5.10
2018-11-27T23:48:51.123Z,5.20
2018-11-27T23:51:19.245Z,5.20
2018-11-27T23:53:47.372Z,5.20
2018-11-27T23:56:15.532Z,5.30
2018-11-27T23:58:43.632Z,5.30
